createdAt,value
2022-10-10T00:02:20.260Z,10.90
2022-10-10T00:04:50.680Z,8.30
2022-10-10T00:07:33.937Z,10.87
2022-10-10T00:10:08.020Z,8.37
2022-10-10T00:12:41.672Z,11.23
2022-10-10T00:15:15.895Z,11.80
2022-10-10T00:17:47.726Z,10.03
2022-10-10T00:20:21.353Z,9.43
2022-10-10T00:22:57.681Z,11.57
2022-10-10T00:25:31.119Z,9.00
2022-10-10T00:28:08.356Z,8.53
2022-10-10T00:30:37.645Z,9.33
2022-10-10T00:33:09.751Z,10.00
2022-10-10T00:35:55.498Z,10.07
2022-10-10T00:38:24.104Z,10.17
2022-10-10T00:40:58.529Z,9.87
2022-10-10T00:46:18.790Z,11.20
2022-10-10T00:48:51.699Z,10.87
2022-10-10T00:51:20.755Z,9.17
2022-10-10T00:53:51.953Z,10.43
2022-10-10T00:56:47.450Z,10.20
2022-10-10T00:59:28.754Z,11.83
2022-10-10T01:01:58.924Z,7.30
2022-10-10T01:04:45.027Z,12.50
2022-10-10T01:07:21.076Z,9.90
2022-10-10T01:10:11.880Z,10.90
2022-10-10T01:12:47.573Z,8.17
2022-10-10T01:15:19.093Z,8.83
2022-10-10T01:17:55.638Z,9.07
2022-10-10T01:20:32.922Z,10.13
2022-10-10T01:23:15.899Z,12.30
2022-10-10T01:26:02.153Z,9.07
2022-10-10T01:28:42.532Z,12.20
2022-10-10T01:31:11.783Z,11.90
2022-10-10T01:33:50.189Z,11.50
2022-10-10T01:36:19.927Z,8.87
2022-10-10T01:39:15.785Z,7.60
2022-10-10T01:41:47.715Z,8.87
2022-10-10T01:44:20.588Z,8.23
2022-10-10T01:46:55.754Z,9.03
2022-10-10T01:49:31.162Z,11.47
2022-10-10T01:52:08.357Z,8.93
2022-10-10T01:54:44.157Z,9.40
2022-10-10T01:57:16.659Z,9.93
2022-10-10T01:59:52.824Z,8.47
2022-10-10T02:02:25.945Z,9.60
2022-10-10T02:04:59.542Z,10.70
2022-10-10T02:07:28.963Z,17.00
2022-10-10T02:10:13.275Z,10.37
2022-10-10T02:12:42.063Z,8.73
2022-10-10T02:15:13.921Z,10.40
2022-10-10T02:17:42.847Z,12.17
2022-10-10T02:20:16.820Z,9.57
2022-10-10T02:22:54.023Z,10.97
2022-10-10T02:25:23.924Z,8.97
2022-10-10T02:27:58.430Z,15.10
2022-10-10T02:30:33.180Z,15.27
2022-10-10T02:33:02.713Z,15.60
2022-10-10T02:35:39.440Z,12.13
2022-10-10T02:38:08.233Z,10.13
2022-10-10T02:40:39.626Z,10.77
2022-10-10T02:43:22.797Z,10.60
2022-10-10T02:45:54.190Z,9.17
2022-10-10T02:48:27.044Z,11.90
2022-10-10T02:50:55.630Z,10.10
2022-10-10T02:53:25.488Z,12.67
2022-10-10T02:55:56.884Z,11.13
2022-10-10T02:58:25.447Z,12.43
2022-10-10T03:00:57.491Z,10.50
2022-10-10T03:03:26.646Z,10.80
2022-10-10T03:05:55.209Z,12.83
2022-10-10T03:08:23.695Z,9.87
2022-10-10T03:10:58.426Z,10.07
2022-10-10T03:13:26.963Z,10.07
2022-10-10T03:15:56.905Z,11.07
2022-10-10T03:18:25.537Z,14.47
2022-10-10T03:20:54.140Z,8.90
2022-10-10T03:23:23.212Z,11.00
2022-10-10T03:25:52.171Z,10.23
2022-10-10T03:28:23.006Z,9.00
2022-10-10T03:30:52.911Z,9.33
2022-10-10T03:33:23.074Z,9.17
2022-10-10T03:35:54.327Z,9.77
2022-10-10T03:38:25.378Z,11.57
2022-10-10T03:40:55.766Z,9.77
2022-10-10T03:43:25.351Z,9.00
2022-10-10T03:45:56.570Z,9.57
2022-10-10T03:48:28.503Z,13.00
2022-10-10T03:50:57.839Z,11.60
2022-10-10T03:53:32.695Z,11.03
2022-10-10T03:56:01.176Z,13.37
2022-10-10T03:58:32.046Z,7.43
2022-10-10T04:01:02.194Z,12.20
2022-10-10T04:03:38.805Z,8.03
2022-10-10T04:06:11.738Z,12.13
2022-10-10T04:08:44.303Z,11.67
2022-10-10T04:11:14.891Z,9.33
2022-10-10T04:13:43.404Z,10.67
2022-10-10T04:16:12.313Z,14.63
2022-10-10T04:18:44.697Z,14.13
2022-10-10T04:21:21.992Z,11.37
2022-10-10T04:23:52.489Z,9.87
2022-10-10T04:26:21.210Z,10.77
2022-10-10T04:28:51.879Z,10.53
2022-10-10T04:31:20.273Z,13.57
2022-10-10T04:33:54.332Z,9.17
2022-10-10T04:36:23.979Z,12.10
2022-10-10T04:38:53.985Z,10.87
2022-10-10T04:41:22.623Z,10.57
2022-10-10T04:43:51.259Z,13.63
2022-10-10T04:46:20.147Z,11.90
2022-10-10T04:48:48.751Z,13.73
2022-10-10T04:51:22.164Z,11.43
2022-10-10T04:53:51.258Z,14.73
2022-10-10T04:56:25.272Z,11.70
2022-10-10T04:58:58.191Z,10.60
2022-10-10T05:01:29.531Z,12.87
2022-10-10T05:03:59.534Z,14.93
2022-10-10T05:06:29.403Z,13.80
2022-10-10T05:08:58.435Z,13.00
2022-10-10T05:11:27.215Z,12.30
2022-10-10T05:13:55.706Z,12.13
2022-10-10T05:16:24.091Z,11.90
2022-10-10T05:18:57.363Z,18.03
2022-10-10T05:21:27.905Z,11.13
2022-10-10T05:23:57.887Z,11.70
2022-10-10T05:26:29.876Z,13.57
2022-10-10T05:28:58.504Z,10.30
2022-10-10T05:31:27.215Z,14.93
2022-10-10T05:33:56.161Z,10.43
2022-10-10T05:36:29.499Z,11.40
2022-10-10T05:39:01.911Z,16.17
2022-10-10T05:44:18.245Z,11.40
2022-10-10T05:46:46.596Z,9.97
2022-10-10T05:49:15.185Z,10.80
2022-10-10T05:51:47.206Z,12.90
2022-10-10T05:54:17.304Z,16.40
2022-10-10T05:56:47.882Z,13.43
2022-10-10T05:59:16.922Z,12.53
2022-10-10T06:01:51.293Z,9.70
2022-10-10T06:04:19.588Z,12.47
2022-10-10T06:06:50.735Z,13.67
2022-10-10T06:09:24.816Z,12.13
2022-10-10T06:11:53.299Z,14.57
2022-10-10T06:14:23.657Z,12.23
2022-10-10T06:16:52.238Z,11.77
2022-10-10T06:19:26.683Z,14.63
2022-10-10T06:21:56.663Z,14.97
2022-10-10T06:24:26.819Z,14.97
2022-10-10T06:26:55.760Z,16.97
2022-10-10T06:29:27.364Z,12.03
2022-10-10T06:32:01.453Z,18.83
2022-10-10T06:34:33.998Z,12.33
2022-10-10T06:37:05.898Z,14.83
2022-10-10T06:39:38.268Z,13.13
2022-10-10T06:42:10.227Z,18.90
2022-10-10T06:44:38.765Z,16.77
2022-10-10T06:47:10.308Z,14.83
2022-10-10T06:49:41.214Z,17.07
2022-10-10T06:52:09.679Z,16.67
2022-10-10T06:54:47.609Z,15.03
2022-10-10T06:57:16.477Z,18.67
2022-10-10T06:59:55.097Z,16.07
2022-10-10T07:02:42.931Z,15.90
2022-10-10T07:05:19.020Z,12.93
2022-10-10T07:08:13.176Z,13.03
2022-10-10T07:10:43.377Z,16.57
2022-10-10T07:13:12.201Z,18.33
2022-10-10T07:15:40.679Z,22.83
2022-10-10T07:18:09.186Z,19.30
2022-10-10T07:20:38.062Z,16.80
2022-10-10T07:23:06.825Z,16.90
2022-10-10T07:25:37.709Z,17.23
2022-10-10T07:28:07.749Z,23.97
2022-10-10T07:30:38.753Z,22.80
2022-10-10T07:33:08.054Z,18.37
2022-10-10T07:35:44.103Z,19.73
2022-10-10T07:38:16.738Z,17.60
2022-10-10T07:40:47.553Z,21.50
2022-10-10T07:43:17.907Z,23.07
2022-10-10T07:45:46.629Z,19.23
2022-10-10T07:48:16.154Z,20.77
2022-10-10T07:50:45.508Z,22.03
2022-10-10T07:53:14.596Z,16.80
2022-10-10T07:55:49.525Z,27.43
2022-10-10T07:58:19.897Z,18.07
2022-10-10T08:00:48.425Z,20.40
2022-10-10T08:03:17.274Z,13.03
2022-10-10T08:05:47.033Z,18.37
2022-10-10T08:08:15.609Z,13.40
2022-10-10T08:10:44.930Z,17.17
2022-10-10T08:13:16.526Z,16.90
2022-10-10T08:15:46.571Z,15.43
2022-10-10T08:18:15.009Z,13.10
2022-10-10T08:20:43.994Z,13.17
2022-10-10T08:23:12.563Z,12.47
2022-10-10T08:25:40.886Z,15.90
2022-10-10T08:28:09.519Z,13.03
2022-10-10T08:30:43.217Z,16.97
2022-10-10T08:33:13.273Z,14.17
2022-10-10T08:35:42.410Z,10.87
2022-10-10T08:38:10.790Z,11.50
2022-10-10T08:40:43.674Z,13.20
2022-10-10T08:43:12.006Z,11.27
2022-10-10T08:45:43.897Z,11.73
2022-10-10T08:48:14.578Z,9.73
2022-10-10T08:50:43.958Z,13.80
2022-10-10T08:53:14.746Z,16.60
2022-10-10T08:55:44.264Z,14.60
2022-10-10T08:58:15.788Z,12.63
2022-10-10T09:00:45.917Z,11.63
2022-10-10T09:03:17.225Z,11.77
2022-10-10T09:05:48.318Z,14.97
2022-10-10T09:08:26.995Z,14.23
2022-10-10T09:10:59.351Z,12.33
2022-10-10T09:13:31.824Z,11.63
2022-10-10T09:16:00.520Z,11.60
2022-10-10T09:18:37.433Z,13.70
2022-10-10T09:21:07.832Z,14.20
2022-10-10T09:23:36.850Z,13.77
2022-10-10T09:26:10.267Z,13.10
2022-10-10T09:28:40.545Z,12.37
2022-10-10T09:31:10.854Z,12.60
2022-10-10T09:33:41.827Z,12.17
2022-10-10T09:36:11.480Z,14.13
2022-10-10T09:38:40.948Z,11.47
2022-10-10T09:41:10.782Z,11.97
2022-10-10T09:43:39.674Z,14.30
2022-10-10T09:46:09.880Z,15.40
2022-10-10T09:48:39.127Z,13.13
2022-10-10T09:51:09.940Z,13.63
2022-10-10T09:53:38.513Z,13.03
2022-10-10T09:56:07.199Z,12.90
2022-10-10T09:58:36.303Z,12.20
2022-10-10T10:01:15.224Z,11.87
2022-10-10T10:03:43.873Z,14.83
2022-10-10T10:06:15.811Z,13.13
2022-10-10T10:08:47.928Z,12.53
2022-10-10T10:11:27.966Z,15.43
2022-10-10T10:13:56.767Z,14.93
2022-10-10T10:16:31.676Z,11.60
2022-10-10T10:19:00.542Z,13.17
2022-10-10T10:21:31.241Z,14.03
2022-10-10T10:24:00.182Z,14.03
2022-10-10T10:26:45.311Z,13.83
2022-10-10T10:29:28.851Z,12.43
2022-10-10T10:31:59.762Z,13.50
2022-10-10T10:34:32.785Z,14.37
2022-10-10T10:37:04.052Z,13.63
2022-10-10T10:39:40.426Z,13.13
2022-10-10T10:42:11.911Z,13.07
2022-10-10T10:44:42.078Z,14.67
2022-10-10T10:47:16.346Z,12.03
2022-10-10T10:49:46.341Z,15.53
2022-10-10T10:52:31.505Z,14.20
2022-10-10T10:55:04.186Z,21.40
2022-10-10T10:57:45.806Z,14.47
2022-10-10T11:01:19.912Z,14.70
2022-10-10T11:03:35.293Z,13.10
2022-10-10T11:06:03.773Z,12.47
2022-10-10T11:08:40.141Z,17.80
2022-10-10T11:11:29.613Z,14.43
2022-10-10T11:13:59.568Z,11.33
2022-10-10T11:16:47.455Z,13.83
2022-10-10T11:19:19.281Z,11.57
2022-10-10T11:21:49.460Z,9.23
2022-10-10T11:24:22.677Z,11.07
2022-10-10T11:26:52.906Z,9.97
2022-10-10T11:29:21.988Z,11.60
2022-10-10T11:31:51.740Z,7.90
2022-10-10T11:34:21.392Z,8.03
2022-10-10T11:36:49.766Z,8.77
2022-10-10T11:39:20.553Z,7.47
2022-10-10T11:41:53.726Z,7.93
2022-10-10T11:44:24.012Z,10.93
2022-10-10T11:46:52.720Z,7.67
2022-10-10T11:49:22.115Z,7.03
2022-10-10T11:52:15.033Z,6.73
2022-10-10T11:54:50.032Z,3.43
2022-10-10T11:57:19.720Z,6.17
2022-10-10T11:59:48.659Z,6.87
2022-10-10T12:02:19.043Z,7.17
2022-10-10T12:04:47.289Z,4.67
2022-10-10T12:07:16.375Z,2.47
2022-10-10T12:09:45.359Z,4.83
2022-10-10T12:12:15.507Z,3.00
2022-10-10T12:14:45.063Z,3.03
2022-10-10T12:17:19.769Z,7.40
2022-10-10T12:19:48.978Z,1.87
2022-10-10T12:22:23.542Z,2.77
2022-10-10T12:25:15.803Z,2.80
2022-10-10T12:27:46.312Z,3.40
2022-10-10T12:30:25.883Z,1.60
2022-10-10T12:32:55.298Z,4.33
2022-10-10T12:35:30.940Z,2.83
2022-10-10T12:38:12.260Z,5.83
2022-10-10T12:40:55.447Z,7.77
2022-10-10T12:43:26.122Z,3.83
2022-10-10T12:45:58.562Z,6.00
2022-10-10T12:48:26.995Z,5.40
2022-10-10T12:50:56.544Z,6.53
2022-10-10T12:53:26.189Z,6.70
2022-10-10T12:55:55.204Z,5.50
2022-10-10T12:58:27.659Z,10.07
2022-10-10T13:00:56.843Z,8.13
2022-10-10T13:03:26.506Z,6.70
2022-10-10T13:05:54.984Z,9.07
2022-10-10T13:08:25.475Z,8.10
2022-10-10T13:11:04.519Z,5.77
2022-10-10T13:13:34.711Z,5.63
2022-10-10T13:16:07.548Z,9.57
2022-10-10T13:18:36.560Z,7.30
2022-10-10T13:21:05.686Z,8.87
2022-10-10T13:23:34.396Z,8.20
2022-10-10T13:26:03.101Z,20.97
2022-10-10T13:28:31.650Z,13.63
2022-10-10T13:31:01.625Z,12.20
2022-10-10T13:33:30.613Z,14.60
2022-10-10T13:35:59.076Z,15.87
2022-10-10T13:38:27.541Z,13.27
2022-10-10T13:40:56.147Z,16.17
2022-10-10T13:43:24.428Z,16.43
2022-10-10T13:45:57.492Z,19.97
2022-10-10T13:48:31.252Z,17.57
2022-10-10T13:51:04.001Z,18.70
2022-10-10T13:53:36.885Z,16.50
2022-10-10T13:56:13.503Z,11.23
2022-10-10T13:58:43.311Z,13.27
2022-10-10T14:01:22.402Z,13.17
2022-10-10T14:03:52.128Z,19.43
2022-10-10T14:06:20.746Z,20.70
2022-10-10T14:08:49.009Z,14.07
2022-10-10T14:11:18.202Z,12.43
2022-10-10T14:13:47.935Z,17.10
2022-10-10T14:16:23.994Z,11.03
2022-10-10T14:18:54.046Z,17.73
2022-10-10T14:21:25.878Z,13.73
2022-10-10T14:23:54.149Z,12.77
2022-10-10T14:26:22.800Z,17.90
2022-10-10T14:28:51.253Z,14.73
2022-10-10T14:31:19.702Z,12.70
2022-10-10T14:33:48.114Z,12.93
2022-10-10T14:36:21.140Z,13.50
2022-10-10T14:38:49.578Z,11.27
2022-10-10T14:41:17.841Z,11.43
2022-10-10T14:43:46.298Z,9.40
2022-10-10T14:46:17.053Z,16.27
2022-10-10T14:48:45.586Z,8.77
2022-10-10T14:51:33.580Z,16.13
2022-10-10T14:54:10.199Z,11.97
2022-10-10T14:57:09.185Z,9.27
2022-10-10T14:59:46.222Z,13.87
2022-10-10T15:02:18.127Z,11.30
2022-10-10T15:04:46.540Z,9.77
2022-10-10T15:07:15.543Z,12.73
2022-10-10T15:10:09.760Z,9.33
2022-10-10T15:12:34.147Z,9.97
2022-10-10T15:15:02.535Z,12.40
2022-10-10T15:17:34.038Z,8.23
2022-10-10T15:20:02.652Z,13.67
2022-10-10T15:22:31.397Z,10.47
2022-10-10T15:25:01.439Z,11.53
2022-10-10T15:27:29.992Z,10.60
2022-10-10T15:29:58.361Z,11.23
2022-10-10T15:32:27.066Z,15.93
2022-10-10T15:34:55.849Z,7.47
2022-10-10T15:37:25.659Z,9.67
2022-10-10T15:39:54.146Z,10.73
2022-10-10T15:42:24.413Z,11.50
2022-10-10T15:44:53.039Z,7.67
2022-10-10T15:47:21.776Z,10.60
2022-10-10T15:49:50.199Z,9.63
2022-10-10T15:52:22.969Z,6.07
2022-10-10T15:54:51.761Z,13.97
2022-10-10T15:57:20.147Z,15.00
2022-10-10T15:59:50.044Z,11.97
2022-10-10T16:02:21.238Z,11.13
2022-10-10T16:04:50.326Z,9.40
2022-10-10T16:07:29.469Z,12.50
2022-10-10T16:10:02.178Z,10.37
2022-10-10T16:12:30.628Z,9.13
2022-10-10T16:15:06.905Z,11.37
2022-10-10T16:17:35.786Z,13.27
2022-10-10T16:20:04.091Z,12.57
2022-10-10T16:22:32.625Z,10.33
2022-10-10T16:25:21.172Z,7.70
2022-10-10T16:27:49.382Z,10.17
2022-10-10T16:30:20.438Z,12.73
2022-10-10T16:32:56.862Z,23.30
2022-10-10T16:35:25.497Z,12.80
2022-10-10T16:37:54.032Z,14.23
2022-10-10T16:40:22.706Z,11.73
2022-10-10T16:42:51.097Z,12.67
2022-10-10T16:45:20.853Z,11.10
2022-10-10T16:47:49.346Z,10.33
2022-10-10T16:50:17.686Z,7.97
2022-10-10T16:52:46.461Z,15.53
2022-10-10T16:55:14.993Z,8.73
2022-10-10T16:57:43.348Z,15.33
2022-10-10T17:00:12.446Z,13.27
2022-10-10T17:02:42.548Z,11.07
2022-10-10T17:05:11.207Z,12.53
2022-10-10T17:07:39.811Z,12.13
2022-10-10T17:10:08.571Z,10.57
2022-10-10T17:12:36.976Z,12.77
2022-10-10T17:15:05.731Z,14.47
2022-10-10T17:17:34.231Z,13.70
2022-10-10T17:20:03.949Z,12.37
2022-10-10T17:22:32.278Z,10.27
2022-10-10T17:25:00.602Z,16.67
2022-10-10T17:27:36.562Z,21.33
2022-10-10T17:30:05.458Z,14.27
2022-10-10T17:32:38.786Z,13.33
2022-10-10T17:35:10.513Z,16.27
2022-10-10T17:37:38.930Z,13.23
2022-10-10T17:40:07.809Z,14.73
2022-10-10T17:42:36.187Z,13.37
2022-10-10T17:45:04.512Z,10.87
2022-10-10T17:47:32.886Z,12.40
2022-10-10T17:50:02.262Z,10.70
2022-10-10T17:52:32.214Z,13.10
2022-10-10T17:55:00.658Z,9.90
2022-10-10T17:57:29.061Z,9.77
2022-10-10T17:59:57.564Z,10.80
2022-10-10T18:02:27.872Z,10.03
2022-10-10T18:05:01.553Z,15.07
2022-10-10T18:07:37.649Z,16.47
2022-10-10T18:10:07.046Z,13.83
2022-10-10T18:12:39.461Z,10.77
2022-10-10T18:15:12.302Z,12.27
2022-10-10T18:17:56.281Z,18.07
2022-10-10T18:20:24.577Z,8.70
2022-10-10T18:23:00.459Z,12.17
2022-10-10T18:25:29.043Z,12.03
2022-10-10T18:27:57.556Z,15.13
2022-10-10T18:30:26.202Z,20.57
2022-10-10T18:32:57.590Z,13.43
2022-10-10T18:35:25.969Z,20.50
2022-10-10T18:37:54.289Z,10.97
2022-10-10T18:40:24.116Z,8.33
2022-10-10T18:42:52.681Z,11.47
2022-10-10T18:45:21.136Z,13.23
2022-10-10T18:47:49.600Z,14.07
2022-10-10T18:50:18.192Z,8.03
2022-10-10T18:52:48.169Z,8.63
2022-10-10T18:55:18.634Z,11.00
2022-10-10T18:57:48.453Z,15.00
2022-10-10T19:00:17.358Z,12.07
2022-10-10T19:02:52.076Z,11.43
2022-10-10T19:05:20.619Z,10.10
2022-10-10T19:07:48.895Z,9.40
2022-10-10T19:10:20.328Z,10.37
2022-10-10T19:12:50.852Z,10.70
2022-10-10T19:15:20.309Z,12.37
2022-10-10T19:17:48.687Z,15.20
2022-10-10T19:20:17.490Z,7.37
2022-10-10T19:22:45.772Z,12.30
2022-10-10T19:25:14.192Z,9.10
2022-10-10T19:27:42.519Z,11.57
2022-10-10T19:30:13.580Z,11.03
2022-10-10T19:32:43.245Z,13.13
2022-10-10T19:35:11.583Z,13.20
2022-10-10T19:37:39.882Z,16.57
2022-10-10T19:40:09.070Z,6.93
2022-10-10T19:42:37.574Z,9.50
2022-10-10T19:45:06.312Z,10.10
2022-10-10T19:47:36.385Z,10.20
2022-10-10T19:50:07.103Z,10.83
2022-10-10T19:52:35.655Z,11.00
2022-10-10T19:55:03.948Z,9.00
2022-10-10T19:57:33.405Z,10.23
2022-10-10T20:00:01.944Z,8.67
2022-10-10T20:02:30.226Z,9.43
2022-10-10T20:04:59.871Z,10.17
2022-10-10T20:07:28.227Z,13.17
2022-10-10T20:09:56.631Z,12.27
2022-10-10T20:12:25.249Z,11.37
2022-10-10T20:14:54.085Z,10.57
2022-10-10T20:17:22.408Z,7.40
2022-10-10T20:19:53.597Z,10.40
2022-10-10T20:22:24.487Z,6.50
2022-10-10T20:24:54.663Z,10.67
2022-10-10T20:27:24.323Z,8.33
2022-10-10T20:29:55.751Z,8.60
2022-10-10T20:32:24.072Z,8.10
2022-10-10T20:34:52.643Z,8.10
2022-10-10T20:37:21.251Z,8.80
2022-10-10T20:39:51.225Z,11.30
2022-10-10T20:42:19.700Z,8.30
2022-10-10T20:44:48.310Z,9.10
2022-10-10T20:47:16.729Z,11.43
2022-10-10T20:49:45.143Z,8.87
2022-10-10T20:52:15.030Z,9.13
2022-10-10T20:54:43.383Z,12.77
2022-10-10T20:57:13.175Z,8.53
2022-10-10T20:59:41.766Z,5.67
2022-10-10T21:02:10.926Z,9.50
2022-10-10T21:04:39.549Z,7.50
2022-10-10T21:07:08.204Z,9.53
2022-10-10T21:09:37.127Z,6.97
2022-10-10T21:12:06.769Z,8.70
2022-10-10T21:14:36.524Z,9.13
2022-10-10T21:17:04.913Z,6.57
2022-10-10T21:19:33.568Z,7.77
2022-10-10T21:22:01.978Z,7.80
2022-10-10T21:24:30.685Z,7.97
2022-10-10T21:26:59.022Z,10.37
2022-10-10T21:29:27.342Z,9.97
2022-10-10T21:31:57.515Z,9.47
2022-10-10T21:34:25.849Z,9.83
2022-10-10T21:36:54.233Z,7.23
2022-10-10T21:39:22.580Z,8.87
2022-10-10T21:41:51.048Z,9.63
2022-10-10T21:44:19.433Z,9.97
2022-10-10T21:46:47.904Z,10.07
2022-10-10T21:49:19.803Z,11.00
2022-10-10T21:51:48.512Z,12.90
2022-10-10T21:54:17.084Z,4.50
2022-10-10T21:56:46.468Z,7.23
2022-10-10T21:59:15.042Z,8.70
2022-10-10T22:01:44.514Z,5.67
2022-10-10T22:04:12.989Z,7.80
2022-10-10T22:06:46.234Z,5.23
2022-10-10T22:09:14.993Z,8.50
2022-10-10T22:11:52.798Z,11.83
2022-10-10T22:14:21.468Z,7.53
2022-10-10T22:16:49.791Z,6.83
2022-10-10T22:19:18.273Z,7.37
2022-10-10T22:21:49.429Z,10.53
2022-10-10T22:24:19.247Z,7.97
2022-10-10T22:26:47.698Z,10.20
2022-10-10T22:29:16.017Z,9.30
2022-10-10T22:31:44.558Z,8.90
2022-10-10T22:34:13.149Z,10.67
2022-10-10T22:36:41.792Z,9.03
2022-10-10T22:39:11.994Z,7.57
2022-10-10T22:41:40.704Z,9.03
2022-10-10T22:44:09.218Z,11.43
2022-10-10T22:46:37.678Z,8.13
2022-10-10T22:49:05.987Z,12.40
2022-10-10T22:51:34.348Z,6.73
2022-10-10T22:54:02.903Z,11.60
2022-10-10T22:56:32.948Z,9.90
2022-10-10T22:59:01.368Z,11.57
2022-10-10T23:01:30.397Z,12.03
2022-10-10T23:04:00.594Z,10.27
2022-10-10T23:06:29.224Z,8.87
2022-10-10T23:08:58.135Z,10.23
2022-10-10T23:11:26.544Z,8.37
2022-10-10T23:13:56.263Z,9.97
2022-10-10T23:16:24.693Z,8.77
2022-10-10T23:18:53.079Z,9.70
2022-10-10T23:21:21.434Z,7.33
2022-10-10T23:23:50.228Z,8.80
2022-10-10T23:26:18.668Z,11.23
2022-10-10T23:28:47.169Z,11.57
2022-10-10T23:31:16.961Z,10.37
2022-10-10T23:33:45.398Z,10.97
2022-10-10T23:36:14.445Z,11.37
2022-10-10T23:38:42.988Z,10.93
2022-10-10T23:41:11.887Z,10.50
2022-10-10T23:43:40.395Z,10.67
2022-10-10T23:46:09.149Z,8.13
2022-10-10T23:48:39.027Z,8.80
2022-10-10T23:51:07.675Z,9.33
2022-10-10T23:53:36.088Z,10.33
2022-10-10T23:56:04.841Z,9.80
2022-10-10T23:58:33.473Z,8.57
